Bay Village, Ohio
Current Conditions -  °F | °C
As of 1:51 PM on Thursday 23 Oct 2014 (Local Time) from KCLE Reporting Station
Broken Clouds Broken Clouds  
Wind Chill: 55°   Ceiling: 2000
Heat Index: 55°   Visibility: 10mi
Dew Point: 45°   Wind: 12mph
Humidity: 69%   Direction: 330°NNW
Pressure: 30.2"   Gusts: NA
Location:  41.48°N, 81.92°W
Report Text: KCLE 231751Z 33010KT 10SM BKN020 13/07 A3020 RMK AO2 SLP227 T01280072 10133 20061 58013
Loading
Personal Weather Stations






























Interactive Weather Map
Tropical Storm Tracking
New forecast layout! Learn more

10-Day Weather Forecast

Advertisements
Track Severe Weather on mobile